Time;durP1;ratioP1;P1;durP2;ratioP2;P2;SDS_P1;SDS_P2;PMS_P1;PMS_P2;Temp;Humidity;BMP_temperature;BMP_pressure;BME280_temperature;BME280_humidity;BME280_pressure;Samples;Min_cycle;Max_cycle;Signal;HPM_P1;HPM_P2
2022/09/17 00:01:52;;;;;;;;;;;20.00;64.00;;;;;;4498223;31;20538;-66
2022/09/17 00:04:17;;;;;;;;;;;20.00;64.00;;;;;;4496515;31;20041;-66
2022/09/17 00:06:43;;;;;;;;;;;20.00;64.10;;;;;;4497672;31;20354;-66
2022/09/17 00:09:09;;;;;;;;;;;20.00;64.00;;;;;;4483483;31;20025;-67
2022/09/17 00:11:37;;;;;;;;;;;20.00;64.00;;;;;;4497398;31;20418;-67
2022/09/17 00:14:03;;;;;;;;;;;20.00;64.10;;;;;;4498193;31;20043;-66
2022/09/17 00:16:30;;;;;;;;;;;20.00;64.00;;;;;;4469596;31;20105;-67
2022/09/17 00:18:59;;;;;;;;;;;20.00;64.00;;;;;;4497892;31;20038;-67
2022/09/17 00:21:25;;;;;;;;;;;20.00;64.00;;;;;;4497271;31;20029;-66
2022/09/17 00:23:55;;;;;;;;;;;20.00;64.00;;;;;;4483245;31;20095;-66
2022/09/17 00:26:21;;;;;;;;;;;20.00;64.00;;;;;;4496438;31;20556;-66
2022/09/17 00:28:51;;;;;;;;;;;20.00;64.00;;;;;;4496978;31;20029;-66
2022/09/17 00:31:17;;;;;;;;;;;20.00;64.10;;;;;;4496818;31;20044;-66
2022/09/17 00:33:43;;;;;;;;;;;20.00;64.10;;;;;;4496688;31;20017;-66
2022/09/17 00:36:09;;;;;;;;;;;20.00;64.00;;;;;;4497661;31;20393;-66
2022/09/17 00:38:35;;;;;;;;;;;20.00;64.10;;;;;;4496918;31;20138;-66
2022/09/17 00:41:01;;;;;;;;;;;20.00;64.00;;;;;;4497239;31;20070;-66
2022/09/17 00:43:35;;;;;;;;;;;19.90;64.00;;;;;;4497302;31;20033;-66
2022/09/17 00:46:01;;;;;;;;;;;19.90;64.00;;;;;;4495639;31;20562;-67
2022/09/17 00:48:27;;;;;;;;;;;19.90;64.00;;;;;;4497364;31;20048;-66
2022/09/17 00:50:54;;;;;;;;;;;19.90;64.00;;;;;;4496701;31;20542;-66
2022/09/17 00:53:21;;;;;;;;;;;19.90;64.00;;;;;;4496395;31;20033;-66
2022/09/17 00:55:50;;;;;;;;;;;19.90;64.00;;;;;;4496860;31;20579;-66
2022/09/17 00:58:17;;;;;;;;;;;19.90;64.00;;;;;;4497019;31;20091;-66
2022/09/17 01:00:45;;;;;;;;;;;19.90;64.00;;;;;;4497160;31;20047;-66
2022/09/17 01:03:12;;;;;;;;;;;19.90;64.00;;;;;;4496605;31;20513;-66
2022/09/17 01:05:44;;;;;;;;;;;19.90;64.00;;;;;;4497589;31;20033;-66
2022/09/17 01:08:19;;;;;;;;;;;19.90;64.00;;;;;;4496258;31;20090;-66
2022/09/17 01:10:48;;;;;;;;;;;19.90;64.00;;;;;;4472695;31;20147;-66
2022/09/17 01:13:30;;;;;;;;;;;19.90;64.00;;;;;;4496770;31;20048;-66
2022/09/17 01:16:05;;;;;;;;;;;19.90;64.00;;;;;;4487233;32;20159;-66
2022/09/17 01:18:36;;;;;;;;;;;19.90;64.00;;;;;;4497563;32;20122;-66
2022/09/17 01:21:08;;;;;;;;;;;19.90;63.90;;;;;;4496331;32;20051;-66
2022/09/17 01:23:34;;;;;;;;;;;19.90;64.00;;;;;;4496867;32;20111;-66
2022/09/17 01:26:25;;;;;;;;;;;19.90;64.00;;;;;;4496758;32;20028;-66
2022/09/17 01:29:10;;;;;;;;;;;19.90;64.00;;;;;;4482250;32;20021;-66
2022/09/17 01:31:40;;;;;;;;;;;19.90;64.00;;;;;;4497442;32;20132;-66
2022/09/17 01:34:06;;;;;;;;;;;19.90;64.00;;;;;;4496390;32;20047;-66
2022/09/17 01:36:45;;;;;;;;;;;19.90;64.00;;;;;;4496684;32;20222;-66
2022/09/17 01:39:26;;;;;;;;;;;19.90;64.00;;;;;;4496808;32;20159;-66
2022/09/17 01:42:02;;;;;;;;;;;19.80;64.00;;;;;;4495388;32;20458;-66
2022/09/17 01:44:33;;;;;;;;;;;19.90;64.00;;;;;;4497237;32;20041;-67
2022/09/17 01:47:09;;;;;;;;;;;19.80;64.00;;;;;;4496336;32;20367;-66
2022/09/17 01:49:36;;;;;;;;;;;19.80;63.90;;;;;;4496621;32;20114;-66
2022/09/17 01:52:02;;;;;;;;;;;19.80;63.90;;;;;;4496635;32;20481;-66
2022/09/17 01:54:34;;;;;;;;;;;19.80;64.00;;;;;;4496283;32;20575;-66
2022/09/17 01:57:15;;;;;;;;;;;19.80;64.00;;;;;;4497333;32;20494;-66
2022/09/17 01:59:47;;;;;;;;;;;19.80;64.00;;;;;;4496127;32;20051;-66
2022/09/17 02:02:15;;;;;;;;;;;19.80;64.00;;;;;;4496854;32;20041;-66
2022/09/17 02:04:52;;;;;;;;;;;19.80;63.90;;;;;;4482356;32;20075;-66
2022/09/17 02:07:19;;;;;;;;;;;19.80;64.00;;;;;;4471780;32;20051;-66
2022/09/17 02:09:49;;;;;;;;;;;19.80;64.00;;;;;;4496847;32;20093;-66
2022/09/17 02:12:17;;;;;;;;;;;19.80;63.90;;;;;;4495841;32;20033;-66
2022/09/17 02:14:46;;;;;;;;;;;19.80;63.90;;;;;;4496916;32;20044;-66
2022/09/17 02:17:18;;;;;;;;;;;19.80;63.90;;;;;;4496219;32;20051;-66
2022/09/17 02:19:44;;;;;;;;;;;19.80;63.90;;;;;;4496281;32;20082;-66
2022/09/17 02:22:22;;;;;;;;;;;19.80;63.90;;;;;;4481015;31;20131;-66
2022/09/17 02:24:51;;;;;;;;;;;19.80;64.00;;;;;;4498636;31;20029;-66
2022/09/17 02:27:35;;;;;;;;;;;19.80;63.90;;;;;;4499691;31;20078;-66
2022/09/17 02:30:01;;;;;;;;;;;19.80;63.90;;;;;;4498823;31;20025;-66
2022/09/17 02:32:27;;;;;;;;;;;19.80;63.90;;;;;;4498917;31;20029;-66
2022/09/17 02:34:53;;;;;;;;;;;19.80;63.90;;;;;;4499244;31;20143;-66
2022/09/17 02:37:18;;;;;;;;;;;19.80;63.90;;;;;;4498748;31;20159;-66
2022/09/17 02:39:44;;;;;;;;;;;19.70;63.80;;;;;;4499495;31;20155;-66
2022/09/17 02:42:22;;;;;;;;;;;19.70;63.80;;;;;;4481686;32;20041;-66
2022/09/17 02:45:14;;;;;;;;;;;19.70;63.90;;;;;;4489063;31;20076;-66
2022/09/17 02:47:58;;;;;;;;;;;19.70;63.80;;;;;;4496856;31;20072;-66
2022/09/17 02:50:27;;;;;;;;;;;19.70;63.90;;;;;;4481475;32;20030;-66
2022/09/17 02:52:53;;;;;;;;;;;19.70;63.80;;;;;;4497938;31;20055;-66
2022/09/17 02:55:19;;;;;;;;;;;19.70;63.90;;;;;;4498411;31;20033;-66
2022/09/17 02:57:59;;;;;;;;;;;19.70;63.90;;;;;;4498974;31;20036;-66
2022/09/17 03:00:27;;;;;;;;;;;19.70;63.90;;;;;;4498822;31;20102;-66
2022/09/17 03:03:00;;;;;;;;;;;19.70;63.80;;;;;;4498394;31;20080;-66
2022/09/17 03:05:27;;;;;;;;;;;19.70;63.90;;;;;;4482385;32;20445;-66
2022/09/17 03:07:54;;;;;;;;;;;19.70;63.90;;;;;;4492979;31;20055;-66
2022/09/17 03:10:20;;;;;;;;;;;19.70;63.90;;;;;;4499088;31;20051;-66
2022/09/17 03:12:46;;;;;;;;;;;19.70;63.80;;;;;;4498428;31;20037;-66
2022/09/17 03:15:11;;;;;;;;;;;19.70;63.80;;;;;;4481433;32;20102;-66
2022/09/17 03:17:37;;;;;;;;;;;19.70;63.90;;;;;;4477365;31;20017;-66
2022/09/17 03:20:04;;;;;;;;;;;19.70;63.80;;;;;;4498136;31;20155;-66
2022/09/17 03:22:29;;;;;;;;;;;19.70;63.90;;;;;;4498909;31;20033;-66
2022/09/17 03:24:55;;;;;;;;;;;19.70;63.80;;;;;;4497799;31;20024;-66
2022/09/17 03:27:21;;;;;;;;;;;19.70;63.80;;;;;;4499018;31;20051;-66
2022/09/17 03:29:46;;;;;;;;;;;19.70;63.80;;;;;;4497900;31;20100;-65
2022/09/17 03:32:12;;;;;;;;;;;19.60;63.80;;;;;;4498238;31;20035;-66
2022/09/17 03:34:38;;;;;;;;;;;19.60;63.80;;;;;;4497726;31;20013;-66
2022/09/17 03:37:04;;;;;;;;;;;19.60;63.80;;;;;;4497907;31;20422;-66
2022/09/17 03:39:29;;;;;;;;;;;19.60;63.80;;;;;;4498479;31;20149;-66
2022/09/17 03:41:55;;;;;;;;;;;19.60;63.80;;;;;;4497526;31;20409;-66
2022/09/17 03:44:22;;;;;;;;;;;19.60;63.80;;;;;;4498729;31;20163;-66
2022/09/17 03:46:49;;;;;;;;;;;19.60;63.80;;;;;;4497342;31;20041;-66
2022/09/17 03:49:14;;;;;;;;;;;19.60;63.80;;;;;;4497827;31;20048;-66
2022/09/17 03:51:40;;;;;;;;;;;19.60;63.80;;;;;;4480936;32;20018;-66
2022/09/17 03:54:06;;;;;;;;;;;19.60;63.80;;;;;;4494945;31;20033;-66
2022/09/17 03:56:32;;;;;;;;;;;19.60;63.80;;;;;;4498021;31;20152;-66
2022/09/17 03:58:58;;;;;;;;;;;19.60;63.80;;;;;;4497300;31;20043;-66
2022/09/17 04:01:24;;;;;;;;;;;19.60;63.90;;;;;;4498339;31;20646;-65
2022/09/17 04:03:49;;;;;;;;;;;19.60;63.80;;;;;;4497133;31;20033;-66
2022/09/17 04:06:16;;;;;;;;;;;19.60;63.80;;;;;;4480939;32;20047;-66
2022/09/17 04:08:42;;;;;;;;;;;19.60;63.80;;;;;;4489999;31;20037;-66
2022/09/17 04:11:08;;;;;;;;;;;19.60;63.80;;;;;;4497348;31;20025;-65
2022/09/17 04:13:34;;;;;;;;;;;19.60;63.80;;;;;;4481029;32;20025;-65
2022/09/17 04:16:00;;;;;;;;;;;19.60;63.80;;;;;;4492773;31;20082;-66
2022/09/17 04:18:26;;;;;;;;;;;19.60;63.80;;;;;;4498238;31;20148;-65
2022/09/17 04:20:54;;;;;;;;;;;19.60;63.80;;;;;;4496881;31;20394;-66
2022/09/17 04:23:20;;;;;;;;;;;19.60;63.80;;;;;;4497610;31;20025;-66
2022/09/17 04:25:45;;;;;;;;;;;19.60;63.80;;;;;;4480606;32;20017;-66
2022/09/17 04:28:11;;;;;;;;;;;19.60;63.90;;;;;;4494745;31;20036;-66
2022/09/17 04:30:37;;;;;;;;;;;19.50;63.80;;;;;;4497288;31;20013;-66
2022/09/17 04:33:03;;;;;;;;;;;19.60;63.90;;;;;;4495909;31;20025;-66
2022/09/17 04:35:28;;;;;;;;;;;19.60;63.80;;;;;;4497781;31;20044;-66
2022/09/17 04:37:55;;;;;;;;;;;19.50;63.80;;;;;;4496777;31;20025;-66
2022/09/17 04:40:22;;;;;;;;;;;19.50;63.80;;;;;;4481800;31;20150;-65
2022/09/17 04:42:48;;;;;;;;;;;19.50;63.80;;;;;;4496968;31;20033;-66
2022/09/17 04:45:14;;;;;;;;;;;19.50;63.80;;;;;;4482404;31;20103;-66
2022/09/17 04:47:39;;;;;;;;;;;19.50;63.80;;;;;;4496658;31;20175;-65
2022/09/17 04:50:05;;;;;;;;;;;19.50;63.80;;;;;;4482952;31;20074;-66
2022/09/17 04:52:32;;;;;;;;;;;19.50;63.80;;;;;;4497376;31;20042;-66
2022/09/17 04:54:58;;;;;;;;;;;19.50;63.80;;;;;;4496412;31;20076;-66
2022/09/17 04:57:25;;;;;;;;;;;19.50;63.80;;;;;;4497431;31;20190;-65
2022/09/17 04:59:50;;;;;;;;;;;19.50;63.80;;;;;;4496747;31;20036;-65
2022/09/17 05:02:16;;;;;;;;;;;19.50;63.80;;;;;;4480121;32;20021;-66
2022/09/17 05:04:42;;;;;;;;;;;19.50;63.80;;;;;;4482387;31;20025;-65
2022/09/17 05:07:09;;;;;;;;;;;19.50;63.80;;;;;;4496844;31;20029;-65
2022/09/17 05:09:34;;;;;;;;;;;19.50;63.80;;;;;;4482930;31;20018;-65
2022/09/17 05:12:00;;;;;;;;;;;19.50;63.80;;;;;;4496431;31;20040;-66
2022/09/17 05:14:26;;;;;;;;;;;19.50;63.80;;;;;;4483200;32;20138;-66
2022/09/17 05:16:51;;;;;;;;;;;19.50;63.80;;;;;;4496164;32;20047;-65
2022/09/17 05:19:17;;;;;;;;;;;19.40;63.80;;;;;;4497093;32;20036;-66
2022/09/17 05:21:43;;;;;;;;;;;19.50;63.80;;;;;;4482516;32;20017;-66
2022/09/17 05:24:08;;;;;;;;;;;19.50;63.80;;;;;;4496698;32;20493;-66
2022/09/17 05:26:34;;;;;;;;;;;19.50;63.80;;;;;;4497088;32;20013;-65
2022/09/17 05:29:00;;;;;;;;;;;19.40;63.80;;;;;;4496268;32;20029;-66
2022/09/17 05:31:26;;;;;;;;;;;19.50;63.80;;;;;;4497205;32;20429;-66
2022/09/17 05:33:51;;;;;;;;;;;19.40;63.80;;;;;;4496190;32;20079;-65
2022/09/17 05:36:19;;;;;;;;;;;19.40;63.70;;;;;;4497001;32;20096;-66
2022/09/17 05:38:44;;;;;;;;;;;19.40;63.80;;;;;;4496438;32;20134;-66
2022/09/17 05:41:10;;;;;;;;;;;19.40;63.80;;;;;;4495455;32;20169;-66
2022/09/17 05:43:36;;;;;;;;;;;19.40;63.80;;;;;;4496255;32;20017;-66
2022/09/17 05:46:02;;;;;;;;;;;19.50;63.80;;;;;;4480567;32;20186;-66
2022/09/17 05:48:28;;;;;;;;;;;19.40;63.80;;;;;;4496416;32;20044;-65
2022/09/17 05:50:54;;;;;;;;;;;19.40;63.80;;;;;;4479102;32;20033;-65
2022/09/17 05:53:20;;;;;;;;;;;19.40;63.80;;;;;;4480681;32;20062;-65
2022/09/17 05:55:46;;;;;;;;;;;19.40;63.80;;;;;;4480152;32;20033;-65
2022/09/17 05:58:15;;;;;;;;;;;19.40;63.80;;;;;;4489454;31;20588;-66
2022/09/17 06:00:41;;;;;;;;;;;19.40;63.80;;;;;;4499479;31;20037;-65
2022/09/17 06:03:09;;;;;;;;;;;19.40;63.70;;;;;;4499187;31;20037;-66
2022/09/17 06:05:35;;;;;;;;;;;19.40;63.80;;;;;;4500038;31;20039;-65
2022/09/17 06:08:01;;;;;;;;;;;19.40;63.80;;;;;;4498926;31;20021;-66
2022/09/17 06:10:27;;;;;;;;;;;19.40;63.80;;;;;;4499743;31;20032;-65
2022/09/17 06:12:58;;;;;;;;;;;19.40;63.70;;;;;;4498999;31;20036;-65
2022/09/17 06:15:25;;;;;;;;;;;19.40;63.80;;;;;;4484896;31;20587;-65
2022/09/17 06:17:51;;;;;;;;;;;19.40;63.80;;;;;;4499525;31;20076;-65
2022/09/17 06:20:17;;;;;;;;;;;19.40;63.80;;;;;;4498906;31;20037;-66
2022/09/17 06:22:43;;;;;;;;;;;19.50;63.80;;;;;;4499712;31;20048;-66
2022/09/17 06:25:09;;;;;;;;;;;19.40;63.70;;;;;;4498757;31;20032;-65
2022/09/17 06:27:35;;;;;;;;;;;19.40;63.70;;;;;;4485220;31;20017;-66
2022/09/17 06:30:00;;;;;;;;;;;19.40;63.80;;;;;;4497614;31;20029;-66
2022/09/17 06:32:27;;;;;;;;;;;19.40;63.80;;;;;;4498012;31;20072;-65
2022/09/17 06:34:54;;;;;;;;;;;19.40;63.70;;;;;;4499190;31;20044;-66
2022/09/17 06:37:25;;;;;;;;;;;19.40;63.70;;;;;;4498566;31;20029;-66
2022/09/17 06:39:51;;;;;;;;;;;19.40;63.70;;;;;;4499687;31;20187;-66
2022/09/17 06:42:17;;;;;;;;;;;19.40;63.70;;;;;;4482787;31;20037;-66
2022/09/17 06:44:43;;;;;;;;;;;19.40;63.70;;;;;;4484474;31;20037;-67
2022/09/17 06:47:08;;;;;;;;;;;19.40;63.80;;;;;;4470049;31;20054;-66
2022/09/17 06:49:34;;;;;;;;;;;19.40;63.70;;;;;;4482209;31;20155;-67
2022/09/17 06:52:00;;;;;;;;;;;19.40;63.80;;;;;;4483277;31;20462;-67
2022/09/17 06:54:26;;;;;;;;;;;19.40;63.70;;;;;;4482369;31;20505;-65
2022/09/17 06:56:51;;;;;;;;;;;19.40;63.40;;;;;;4485007;31;20044;-65
2022/09/17 06:59:17;;;;;;;;;;;19.50;63.50;;;;;;4482226;31;20048;-66
2022/09/17 07:01:43;;;;;;;;;;;19.50;63.40;;;;;;4469919;32;20037;-65
2022/09/17 07:04:09;;;;;;;;;;;19.40;63.20;;;;;;4484154;31;20021;-65
2022/09/17 07:06:35;;;;;;;;;;;19.40;63.10;;;;;;4498533;31;20511;-65
2022/09/17 07:09:01;;;;;;;;;;;19.40;63.10;;;;;;4483741;31;20035;-66
2022/09/17 07:11:28;;;;;;;;;;;19.40;63.20;;;;;;4497090;31;20025;-66
2022/09/17 07:13:55;;;;;;;;;;;19.40;63.30;;;;;;4498772;31;20067;-66
2022/09/17 07:16:20;;;;;;;;;;;19.40;64.10;;;;;;4497496;31;20033;-65
2022/09/17 07:18:46;;;;;;;;;;;19.40;63.30;;;;;;4498788;31;20024;-66
2022/09/17 07:21:12;;;;;;;;;;;19.40;63.40;;;;;;4483785;31;20524;-65
2022/09/17 07:23:38;;;;;;;;;;;19.40;63.40;;;;;;4498110;31;20040;-65
2022/09/17 07:26:05;;;;;;;;;;;19.40;63.10;;;;;;4498226;31;20029;-65
2022/09/17 07:28:31;;;;;;;;;;;19.40;62.90;;;;;;4497802;31;20467;-65
2022/09/17 07:30:57;;;;;;;;;;;19.50;62.90;;;;;;4498548;31;20028;-65
2022/09/17 07:33:24;;;;;;;;;;;19.50;62.70;;;;;;4497620;31;20025;-66
2022/09/17 07:35:53;;;;;;;;;;;19.50;62.70;;;;;;4499035;31;20599;-66
2022/09/17 07:38:19;;;;;;;;;;;19.50;62.60;;;;;;4497771;31;20048;-66
2022/09/17 07:40:52;;;;;;;;;;;19.50;63.00;;;;;;4498118;31;20190;-65
2022/09/17 07:43:17;;;;;;;;;;;19.50;63.20;;;;;;4498183;31;20041;-66
2022/09/17 07:45:43;;;;;;;;;;;19.50;63.20;;;;;;4497531;31;20017;-66
2022/09/17 07:48:09;;;;;;;;;;;19.50;63.40;;;;;;4498420;31;20025;-64
2022/09/17 07:50:36;;;;;;;;;;;19.50;63.20;;;;;;4497324;31;20032;-65
2022/09/17 07:53:03;;;;;;;;;;;19.50;63.40;;;;;;4498606;31;20036;-65
2022/09/17 07:55:28;;;;;;;;;;;19.50;63.10;;;;;;4497507;31;20374;-66
2022/09/17 07:57:56;;;;;;;;;;;19.50;63.40;;;;;;4497784;31;20083;-65
2022/09/17 08:00:22;;;;;;;;;;;19.50;63.50;;;;;;4497807;31;20029;-66
2022/09/17 08:02:54;;;;;;;;;;;19.50;63.50;;;;;;4497324;31;20029;-66
2022/09/17 08:05:20;;;;;;;;;;;19.60;63.50;;;;;;4498222;31;20009;-64
2022/09/17 08:07:50;;;;;;;;;;;19.60;63.70;;;;;;4496924;31;20185;-64
2022/09/17 08:10:20;;;;;;;;;;;19.60;63.60;;;;;;4471041;31;20036;-67
2022/09/17 08:12:48;;;;;;;;;;;19.60;63.50;;;;;;4497283;31;20051;-65
2022/09/17 08:15:15;;;;;;;;;;;19.60;63.30;;;;;;4497321;31;20029;-62
2022/09/17 08:17:44;;;;;;;;;;;19.70;63.20;;;;;;4497601;31;20036;-63
2022/09/17 08:20:10;;;;;;;;;;;19.70;63.50;;;;;;4497150;31;20033;-64
2022/09/17 08:22:36;;;;;;;;;;;19.70;63.30;;;;;;4498010;31;20036;-63
2022/09/17 08:25:03;;;;;;;;;;;19.70;63.50;;;;;;4485336;31;20032;-65
2022/09/17 08:27:29;;;;;;;;;;;19.80;63.60;;;;;;4482287;31;20033;-66
2022/09/17 08:29:55;;;;;;;;;;;19.80;63.80;;;;;;4486624;31;20084;-61
2022/09/17 08:32:21;;;;;;;;;;;19.90;63.70;;;;;;4496451;31;20159;-63
2022/09/17 08:34:47;;;;;;;;;;;19.80;63.70;;;;;;4483221;31;20039;-63
2022/09/17 08:37:13;;;;;;;;;;;19.90;64.00;;;;;;4496832;31;20029;-63
2022/09/17 08:39:39;;;;;;;;;;;19.90;64.20;;;;;;4490090;31;20083;-63
2022/09/17 08:42:14;;;;;;;;;;;19.90;64.00;;;;;;4496614;31;20033;-63
2022/09/17 08:44:41;;;;;;;;;;;20.00;64.00;;;;;;4497409;31;20533;-62
2022/09/17 08:47:25;;;;;;;;;;;20.00;64.10;;;;;;4482829;31;20182;-62
2022/09/17 08:49:52;;;;;;;;;;;19.90;64.80;;;;;;4496875;31;20020;-62
2022/09/17 08:52:37;;;;;;;;;;;19.90;64.20;;;;;;4485556;31;20340;-62
2022/09/17 08:55:17;;;;;;;;;;;19.90;64.20;;;;;;4488983;31;20017;-63
2022/09/17 08:57:55;;;;;;;;;;;19.90;64.20;;;;;;4497008;31;20194;-62
2022/09/17 09:00:22;;;;;;;;;;;19.90;64.30;;;;;;4497081;31;20061;-62
2022/09/17 09:02:57;;;;;;;;;;;19.90;64.40;;;;;;4491557;31;20194;-63
2022/09/17 09:05:29;;;;;;;;;;;19.90;64.20;;;;;;4497625;31;20043;-62
2022/09/17 09:07:59;;;;;;;;;;;19.90;65.00;;;;;;4496230;31;20036;-62
2022/09/17 09:10:28;;;;;;;;;;;19.90;64.00;;;;;;4497226;31;20167;-63
2022/09/17 09:12:55;;;;;;;;;;;19.90;63.90;;;;;;4496442;31;20043;-63
2022/09/17 09:15:42;;;;;;;;;;;20.00;63.90;;;;;;4495018;31;20033;-63
2022/09/17 09:18:12;;;;;;;;;;;19.90;63.80;;;;;;4496921;32;20480;-62
2022/09/17 09:20:48;;;;;;;;;;;19.90;63.70;;;;;;4495993;32;20927;-62
2022/09/17 09:23:17;;;;;;;;;;;19.90;63.40;;;;;;4496532;32;20021;-62
2022/09/17 09:26:07;;;;;;;;;;;19.90;63.40;;;;;;4495889;32;20037;-62
2022/09/17 09:28:45;;;;;;;;;;;19.90;63.30;;;;;;4450929;32;20029;-62
2022/09/17 09:31:22;;;;;;;;;;;19.90;63.30;;;;;;4495558;31;20072;-62
2022/09/17 09:33:49;;;;;;;;;;;19.90;63.30;;;;;;4494990;31;20037;-61
2022/09/17 09:36:20;;;;;;;;;;;19.90;63.40;;;;;;4499265;31;20531;-61
2022/09/17 09:38:52;;;;;;;;;;;19.90;63.40;;;;;;4498787;31;20067;-61
2022/09/17 09:41:28;;;;;;;;;;;19.90;63.40;;;;;;4498839;31;20044;-62
2022/09/17 09:44:02;;;;;;;;;;;19.90;63.40;;;;;;4496440;31;20067;-61
2022/09/17 09:46:34;;;;;;;;;;;20.00;63.30;;;;;;4498075;31;20049;-62
2022/09/17 09:49:19;;;;;;;;;;;20.00;63.40;;;;;;4484490;31;20528;-62
2022/09/17 09:51:49;;;;;;;;;;;20.00;63.30;;;;;;4498855;31;20029;-62
2022/09/17 09:54:17;;;;;;;;;;;20.00;63.30;;;;;;4498313;31;20037;-62
2022/09/17 09:56:43;;;;;;;;;;;20.00;63.20;;;;;;4495701;31;20021;-61
2022/09/17 09:59:12;;;;;;;;;;;20.10;63.30;;;;;;4497842;31;20036;-62
2022/09/17 10:01:39;;;;;;;;;;;20.10;63.20;;;;;;4499293;31;20025;-63
2022/09/17 10:04:16;;;;;;;;;;;20.10;63.30;;;;;;4498799;31;20009;-63
2022/09/17 10:06:41;;;;;;;;;;;20.10;63.20;;;;;;4483914;31;20171;-63
2022/09/17 10:09:09;;;;;;;;;;;20.10;63.20;;;;;;4498787;31;20017;-62
2022/09/17 10:11:36;;;;;;;;;;;20.20;62.90;;;;;;4491174;31;20040;-62
2022/09/17 10:14:14;;;;;;;;;;;20.10;62.80;;;;;;4487793;31;20025;-62
2022/09/17 10:16:40;;;;;;;;;;;20.20;62.90;;;;;;4497218;31;20073;-62
2022/09/17 10:19:06;;;;;;;;;;;20.10;62.80;;;;;;4498568;31;20057;-62
2022/09/17 10:21:35;;;;;;;;;;;20.20;62.80;;;;;;4498211;31;20025;-62
2022/09/17 10:24:02;;;;;;;;;;;20.20;62.70;;;;;;4498257;31;20037;-62
2022/09/17 10:26:29;;;;;;;;;;;20.20;62.90;;;;;;4498444;31;20068;-62
2022/09/17 10:28:57;;;;;;;;;;;20.20;62.90;;;;;;4489156;31;20037;-62
2022/09/17 10:31:23;;;;;;;;;;;20.30;62.90;;;;;;4487838;31;20096;-63
2022/09/17 10:33:55;;;;;;;;;;;20.30;62.80;;;;;;4488486;31;20025;-63
2022/09/17 10:36:38;;;;;;;;;;;20.30;62.60;;;;;;4487842;31;20045;-63
2022/09/17 10:39:43;;;;;;;;;;;20.30;62.60;;;;;;4488068;31;20080;-62
2022/09/17 10:42:16;;;;;;;;;;;20.30;62.60;;;;;;4416971;32;20038;-62
2022/09/17 10:44:55;;;;;;;;;;;20.30;62.70;;;;;;4487057;31;20029;-62
2022/09/17 10:47:32;;;;;;;;;;;20.30;62.60;;;;;;4498110;31;20191;-62
2022/09/17 10:50:00;;;;;;;;;;;20.30;62.40;;;;;;4481793;32;20160;-62
2022/09/17 10:52:36;;;;;;;;;;;20.40;62.40;;;;;;4495342;31;20101;-62
2022/09/17 10:55:11;;;;;;;;;;;20.40;62.40;;;;;;4498151;31;20106;-62
2022/09/17 10:57:46;;;;;;;;;;;20.30;62.20;;;;;;4498352;31;20035;-61
2022/09/17 11:00:14;;;;;;;;;;;20.30;62.20;;;;;;4498204;31;20033;-61
2022/09/17 11:02:49;;;;;;;;;;;20.40;62.30;;;;;;4498074;31;20053;-61
2022/09/17 11:05:24;;;;;;;;;;;20.40;62.10;;;;;;4498602;31;20053;-61
2022/09/17 11:07:54;;;;;;;;;;;20.40;62.00;;;;;;4496369;31;20025;-62
2022/09/17 11:10:25;;;;;;;;;;;20.40;62.00;;;;;;4496564;31;20037;-62
2022/09/17 11:12:59;;;;;;;;;;;20.40;62.00;;;;;;4498026;31;20096;-61
2022/09/17 11:15:48;;;;;;;;;;;20.40;62.00;;;;;;4496161;31;20020;-61
2022/09/17 11:18:32;;;;;;;;;;;20.40;61.90;;;;;;4488071;31;20025;-61
2022/09/17 11:21:07;;;;;;;;;;;20.40;61.80;;;;;;4497643;31;20163;-61
2022/09/17 11:23:35;;;;;;;;;;;20.40;61.80;;;;;;4496809;31;20033;-61
2022/09/17 11:26:04;;;;;;;;;;;20.40;61.90;;;;;;4497472;31;20155;-61
2022/09/17 11:28:33;;;;;;;;;;;20.40;61.70;;;;;;4489135;31;20079;-62
2022/09/17 11:31:05;;;;;;;;;;;20.40;61.50;;;;;;4493480;31;20163;-62
2022/09/17 11:33:34;;;;;;;;;;;20.40;61.60;;;;;;4492238;31;20045;-61
2022/09/17 11:36:26;;;;;;;;;;;20.40;61.70;;;;;;4491459;31;20069;-61
2022/09/17 11:38:55;;;;;;;;;;;20.40;61.50;;;;;;4484928;31;20163;-61
2022/09/17 11:41:30;;;;;;;;;;;20.40;61.60;;;;;;4472781;31;20537;-61
2022/09/17 11:44:14;;;;;;;;;;;20.40;61.40;;;;;;4492456;31;20041;-61
2022/09/17 11:46:42;;;;;;;;;;;20.40;61.20;;;;;;4495682;31;20056;-61
2022/09/17 11:49:11;;;;;;;;;;;20.40;61.30;;;;;;4496297;31;20064;-61
2022/09/17 11:51:49;;;;;;;;;;;20.40;61.20;;;;;;4496493;31;20099;-62
2022/09/17 11:54:24;;;;;;;;;;;20.40;61.00;;;;;;4478566;31;20037;-61
2022/09/17 11:56:51;;;;;;;;;;;20.40;61.10;;;;;;4495460;31;20096;-61
2022/09/17 11:59:25;;;;;;;;;;;20.40;61.10;;;;;;4496141;31;20028;-62
2022/09/17 12:01:56;;;;;;;;;;;20.40;60.70;;;;;;4496261;31;20001;-62
2022/09/17 12:04:39;;;;;;;;;;;20.40;60.90;;;;;;4483300;31;20107;-62
2022/09/17 12:07:10;;;;;;;;;;;20.40;60.80;;;;;;4497309;31;20064;-62
2022/09/17 12:09:39;;;;;;;;;;;20.30;60.40;;;;;;4497387;31;20037;-62
2022/09/17 12:12:09;;;;;;;;;;;20.30;60.60;;;;;;4481932;31;20033;-61
2022/09/17 12:14:43;;;;;;;;;;;20.30;60.50;;;;;;4495850;31;20033;-62
2022/09/17 12:17:12;;;;;;;;;;;20.30;60.50;;;;;;4495848;31;20044;-62
2022/09/17 12:19:41;;;;;;;;;;;20.30;60.70;;;;;;4496786;31;20029;-62
2022/09/17 12:22:14;;;;;;;;;;;20.30;60.60;;;;;;4482799;31;20025;-62
2022/09/17 12:24:41;;;;;;;;;;;20.30;60.60;;;;;;4496709;31;20175;-62
2022/09/17 12:27:26;;;;;;;;;;;20.20;60.60;;;;;;4497989;31;20044;-63
2022/09/17 12:29:55;;;;;;;;;;;20.20;60.10;;;;;;4481810;31;20032;-62
2022/09/17 12:32:24;;;;;;;;;;;20.20;60.30;;;;;;4496483;31;20033;-62
2022/09/17 12:35:16;;;;;;;;;;;20.20;60.50;;;;;;4497421;31;20550;-61
2022/09/17 12:37:45;;;;;;;;;;;20.20;60.80;;;;;;4483765;31;20029;-62
2022/09/17 12:40:18;;;;;;;;;;;20.30;60.90;;;;;;4496490;31;20083;-63
2022/09/17 12:42:46;;;;;;;;;;;20.30;61.00;;;;;;4494276;31;20048;-62
2022/09/17 12:45:32;;;;;;;;;;;20.30;61.20;;;;;;4496690;31;20151;-62
2022/09/17 12:48:05;;;;;;;;;;;20.30;61.20;;;;;;4495300;31;20032;-63
2022/09/17 12:50:40;;;;;;;;;;;20.30;61.10;;;;;;4493929;31;20021;-63
2022/09/17 12:53:08;;;;;;;;;;;20.30;61.20;;;;;;4496294;31;20049;-62
2022/09/17 12:55:39;;;;;;;;;;;20.30;61.20;;;;;;4496047;31;20146;-63
2022/09/17 12:58:04;;;;;;;;;;;20.30;61.20;;;;;;4496774;31;20092;-64
2022/09/17 13:00:34;;;;;;;;;;;20.30;60.70;;;;;;4496665;31;20158;-62
2022/09/17 13:03:11;;;;;;;;;;;20.30;60.60;;;;;;4493149;31;20083;-63
2022/09/17 13:05:48;;;;;;;;;;;20.30;60.60;;;;;;4492623;31;20040;-63
2022/09/17 13:08:23;;;;;;;;;;;20.30;60.60;;;;;;4486056;31;20056;-63
2022/09/17 13:10:49;;;;;;;;;;;20.30;60.70;;;;;;4495204;31;20115;-63
2022/09/17 13:13:15;;;;;;;;;;;20.30;60.70;;;;;;4495936;31;20051;-62
2022/09/17 13:15:41;;;;;;;;;;;20.30;60.70;;;;;;4481446;31;20041;-63
2022/09/17 13:18:11;;;;;;;;;;;20.30;60.60;;;;;;4495685;31;20118;-62
2022/09/17 13:20:53;;;;;;;;;;;20.30;60.60;;;;;;4495124;32;20230;-63
2022/09/17 13:23:30;;;;;;;;;;;20.30;60.60;;;;;;4495943;32;20052;-63
2022/09/17 13:25:59;;;;;;;;;;;20.30;60.70;;;;;;4495782;32;20021;-61
2022/09/17 13:28:35;;;;;;;;;;;20.30;60.60;;;;;;4495548;32;20104;-62
2022/09/17 13:31:03;;;;;;;;;;;20.30;60.40;;;;;;4496384;32;20167;-62
2022/09/17 13:33:49;;;;;;;;;;;20.20;60.40;;;;;;4495085;32;20074;-61
2022/09/17 13:36:33;;;;;;;;;;;20.20;60.10;;;;;;4495723;32;20084;-61
2022/09/17 13:39:00;;;;;;;;;;;20.20;59.70;;;;;;4495760;32;20044;-61
2022/09/17 13:41:26;;;;;;;;;;;20.20;59.70;;;;;;4495434;32;20029;-61
2022/09/17 13:43:54;;;;;;;;;;;20.20;59.20;;;;;;4495992;32;20134;-61
2022/09/17 13:46:22;;;;;;;;;;;20.20;59.40;;;;;;4494485;32;20025;-62
2022/09/17 13:48:49;;;;;;;;;;;20.20;58.90;;;;;;4492033;32;20035;-61
2022/09/17 13:51:29;;;;;;;;;;;20.20;58.80;;;;;;4479324;32;20057;-61
2022/09/17 13:53:56;;;;;;;;;;;20.20;58.60;;;;;;4478391;32;20097;-62
2022/09/17 13:56:31;;;;;;;;;;;20.20;59.10;;;;;;4480181;32;20486;-61
2022/09/17 13:59:07;;;;;;;;;;;20.20;59.00;;;;;;4479845;32;20039;-62
2022/09/17 14:01:51;;;;;;;;;;;20.20;58.90;;;;;;4480892;32;20095;-61
2022/09/17 14:04:36;;;;;;;;;;;20.20;58.60;;;;;;4480283;32;20048;-61
2022/09/17 14:07:22;;;;;;;;;;;20.20;58.60;;;;;;4480201;32;20076;-60
2022/09/17 14:09:50;;;;;;;;;;;20.20;58.70;;;;;;4480708;32;20045;-61
2022/09/17 14:12:47;;;;;;;;;;;20.20;58.40;;;;;;4479986;32;20163;-62
2022/09/17 14:15:31;;;;;;;;;;;20.20;57.80;;;;;;4449087;32;20037;-63
2022/09/17 14:17:58;;;;;;;;;;;20.20;58.00;;;;;;4466820;32;20061;-63
2022/09/17 14:20:28;;;;;;;;;;;20.20;58.00;;;;;;4466598;32;20045;-62
2022/09/17 14:22:58;;;;;;;;;;;20.20;58.10;;;;;;4470037;32;20057;-62
2022/09/17 14:25:31;;;;;;;;;;;20.10;57.60;;;;;;4472965;31;20147;-63
2022/09/17 14:27:58;;;;;;;;;;;20.10;57.10;;;;;;4480298;32;20040;-63
2022/09/17 14:30:33;;;;;;;;;;;20.10;57.00;;;;;;4483022;31;20056;-62
2022/09/17 14:33:17;;;;;;;;;;;20.10;57.40;;;;;;4482447;31;20052;-63